Rechercher aéroport 
image banner adimage banner adimage banner ad
image banner ad

03G - Thermal-G

Situé à Erie, United States

ICAO - 03G, IATA -

Données fournies par Airmate  

Information générale

Coordonnées: N42°1'14" W80°4'15"
Élévation : 1434 feet MSL.
Variation magnétique : -08° East
Voir autres Aéroports à Pennsylvania

Données opérationnelles

Special qualification required
Heure actuelle UTC:
Heure actuelle locale:
Météo à : KERI - Erie Intl/Tom Ridge Field ( 11 km )
METAR: KERI 291435Z 28008G19KT 2SM R06/5500VP6000FT TSRA FEW013 BKN023 OVC036 22/19 A2988 RMK AO2 WSHFT 1413 LTG DSNT ALQDS RAB1355 TSB12E28B30 PRESRR P0030 T02220194
TAF: KERI 291152Z 2912/3012 18008KT P6SM VCSH BKN060 TEMPO 2912/2916 VRB15G30KT 4SM -TSRA OVC035CB FM291800 23011G20KT P6SM -SHRA VCTS BKN020CB TEMPO 2918/2921 4SM TSRA BR OVC009CB FM292100 27010KT P6SM VCSH BKN030 FM300500 34012KT P6SM BKN030
Voir NOTAMs / SUP AIP / TFR affectant cet aéroport [VIEW]
Fréquences de communication: [VIEW]

Pistes:

Identifiant RWYQFULongueur (ft)Largeur (ft)SurfaceLDA (ft)
0764°1264110GRASS
25244°1264110GRASS

Coordonnées de l'aéroport

Adresse: Erie United States

Vue satellite de 03G